PWSweather.com
Personal Weather Stations
Station Observations
KWABLAIN13
Ptl Weather, Blaine, WA

Ptl WeatherBlaine, WA

Lat: 48.997393, Lon: -122.748614

Elevation: 57

Station Type: Davis Advantage Pro 2

http://www.ptlnet.net

High Low Average
Temperature 51.1°F10.6°C 34.5°F1.4°C 42.5°F5.8°C
Dew Point 40.0°F4.4°C 31.2°F-0.4°C 35.4°F1.9°C
Winds 10.0 mph 16.1 kmh Calm Calm 3.0 mph SE4.8 kmh SE
Wind Gusts 15.0 mph24.1 kmh 1.0 mph1.6 kmh 6.0 mph9.7 kmh
Humidity 93% 51% 77%
Pressure 30.35 in1027.8 mb 30.17 in1021.7 mb -
Precipitation 0.00 in0.0 mm - -
Hour Temp Dew Point Humidity Winds Wind Gusts Pressure Precip Precip Rate Daily Precip Total
12:05 AM 41.3°F5.2°C 33.7°F0.9°C 74% 10.0 mph SW16.1 kmh SW 14.0 mph22.5 kmh 30.14 in1020.7 mb 0.00 in0.0 mm 0.00 in0.0 mm 0.00 in0.0 mm
12:09 AM 41.3°F5.2°C 33.7°F0.9°C 74% 7.0 mph SSW11.3 kmh SSW 14.0 mph22.5 kmh 30.15 in1021.0 mb 0.00 in0.0 mm 0.00 in0.0 mm 0.00 in0.0 mm
12:24 AM 41.2°F5.1°C 34.2°F1.2°C 76% 7.0 mph SW11.3 kmh SW 10.0 mph16.1 kmh 30.15 in1021.0 mb 0.00 in0.0 mm 0.00 in0.0 mm 0.00 in0.0 mm
12:30 AM 41.1°F5.1°C 34.5°F1.4°C 77% 6.0 mph SW9.7 kmh SW 10.0 mph16.1 kmh 30.15 in1021.0 mb 0.00 in0.0 mm 0.00 in0.0 mm 0.00 in0.0 mm
12:45 AM 41.1°F5.1°C 34.1°F1.2°C 76% 6.0 mph S9.7 kmh S 12.0 mph19.3 kmh 30.16 in1021.3 mb 0.00 in0.0 mm 0.00 in0.0 mm 0.00 in0.0 mm
12:50 AM 41.2°F5.1°C 34.2°F1.2°C 76% 7.0 mph SW11.3 kmh SW 12.0 mph19.3 kmh 30.16 in1021.3 mb 0.00 in0.0 mm 0.00 in0.0 mm 0.00 in0.0 mm
01:04 AM 41.4°F5.2°C 34.4°F1.3°C 76% 6.0 mph SW9.7 kmh SW 8.0 mph12.9 kmh 30.17 in1021.7 mb 0.00 in0.0 mm 0.00 in0.0 mm 0.00 in0.0 mm
01:10 AM 41.5°F5.3°C 34.2°F1.2°C 75% 6.0 mph SSW9.7 kmh SSW 8.0 mph12.9 kmh 30.17 in1021.7 mb 0.00 in0.0 mm 0.00 in0.0 mm 0.00 in0.0 mm
01:25 AM 41.5°F5.3°C 33.8°F1.0°C 74% Calm Calm 8.0 mph12.9 kmh 30.17 in1021.7 mb 0.00 in0.0 mm 0.00 in0.0 mm 0.00 in0.0 mm
01:29 AM 41.4°F5.2°C 33.4°F0.8°C 73% 2.0 mph SE3.2 kmh SE 8.0 mph12.9 kmh 30.17 in1021.7 mb 0.00 in0.0 mm 0.00 in0.0 mm 0.00 in0.0 mm
01:45 AM 40.3°F4.6°C 33.0°F0.6°C 75% 2.0 mph SE3.2 kmh SE 3.0 mph4.8 kmh 30.18 in1022.0 mb 0.00 in0.0 mm 0.00 in0.0 mm 0.00 in0.0 mm
01:50 AM 40.0°F4.4°C 33.1°F0.6°C 76% Calm Calm 3.0 mph4.8 kmh 30.18 in1022.0 mb 0.00 in0.0 mm 0.00 in0.0 mm 0.00 in0.0 mm
02:05 AM 39.7°F4.3°C 33.1°F0.6°C 77% 3.0 mph SE4.8 kmh SE 3.0 mph4.8 kmh 30.18 in1022.0 mb 0.00 in0.0 mm 0.00 in0.0 mm 0.00 in0.0 mm
02:10 AM 39.7°F4.3°C 33.1°F0.6°C 77% 5.0 mph SE8.0 kmh SE 5.0 mph8.0 kmh 30.19 in1022.4 mb 0.00 in0.0 mm 0.00 in0.0 mm 0.00 in0.0 mm
02:25 AM 40.1°F4.5°C 32.8°F0.4°C 75% 7.0 mph SSW11.3 kmh SSW 11.0 mph17.7 kmh 30.19 in1022.4 mb 0.00 in0.0 mm 0.00 in0.0 mm 0.00 in0.0 mm
02:29 AM 40.6°F4.8°C 32.3°F0.2°C 72% 9.0 mph SW14.5 kmh SW 15.0 mph24.1 kmh 30.19 in1022.4 mb 0.00 in0.0 mm 0.00 in0.0 mm 0.00 in0.0 mm
02:45 AM 41.3°F5.2°C 33.7°F0.9°C 74% 10.0 mph SW16.1 kmh SW 15.0 mph24.1 kmh 30.20 in1022.7 mb 0.00 in0.0 mm 0.00 in0.0 mm 0.00 in0.0 mm
02:50 AM 41.4°F5.2°C 34.1°F1.2°C 75% 5.0 mph S8.0 kmh S 6.0 mph9.7 kmh 30.20 in1022.7 mb 0.00 in0.0 mm 0.00 in0.0 mm 0.00 in0.0 mm
03:05 AM 41.5°F5.3°C 34.8°F1.6°C 77% 2.0 mph S3.2 kmh S 6.0 mph9.7 kmh 30.20 in1022.7 mb 0.00 in0.0 mm 0.00 in0.0 mm 0.00 in0.0 mm
03:09 AM 41.5°F5.3°C 34.8°F1.6°C 77% 4.0 mph S6.4 kmh S 6.0 mph9.7 kmh 30.21 in1023.0 mb 0.00 in0.0 mm 0.00 in0.0 mm 0.00 in0.0 mm
03:25 AM 41.4°F5.2°C 35.1°F1.7°C 78% 1.0 mph S1.6 kmh S 4.0 mph6.4 kmh 30.21 in1023.0 mb 0.00 in0.0 mm 0.00 in0.0 mm 0.00 in0.0 mm
03:30 AM 41.4°F5.2°C 35.1°F1.7°C 78% 1.0 mph SE1.6 kmh SE 4.0 mph6.4 kmh 30.21 in1023.0 mb 0.00 in0.0 mm 0.00 in0.0 mm 0.00 in0.0 mm
03:45 AM 40.7°F4.8°C 34.4°F1.3°C 78% 3.0 mph ESE4.8 kmh ESE 3.0 mph4.8 kmh 30.21 in1023.0 mb 0.00 in0.0 mm 0.00 in0.0 mm 0.00 in0.0 mm
03:49 AM 40.4°F4.7°C 34.4°F1.3°C 79% 1.0 mph ESE1.6 kmh ESE 4.0 mph6.4 kmh 30.21 in1023.0 mb 0.00 in0.0 mm 0.00 in0.0 mm 0.00 in0.0 mm
04:05 AM 39.5°F4.2°C 34.8°F1.6°C 83% Calm Calm 4.0 mph6.4 kmh 30.22 in1023.4 mb 0.00 in0.0 mm 0.00 in0.0 mm 0.00 in0.0 mm
04:10 AM 39.4°F4.1°C 34.7°F1.5°C 83% 4.0 mph S6.4 kmh S 5.0 mph8.0 kmh 30.22 in1023.4 mb 0.00 in0.0 mm 0.00 in0.0 mm 0.00 in0.0 mm
04:25 AM 40.1°F4.5°C 35.4°F1.9°C 83% 9.0 mph SSW14.5 kmh SSW 10.0 mph16.1 kmh 30.22 in1023.4 mb 0.00 in0.0 mm 0.00 in0.0 mm 0.00 in0.0 mm
04:29 AM 40.4°F4.7°C 35.4°F1.9°C 82% 8.0 mph SSW12.9 kmh SSW 13.0 mph20.9 kmh 30.22 in1023.4 mb 0.00 in0.0 mm 0.00 in0.0 mm 0.00 in0.0 mm
04:45 AM 40.4°F4.7°C 35.0°F1.7°C 81% 5.0 mph SSW8.0 kmh SSW 9.0 mph14.5 kmh 30.22 in1023.4 mb 0.00 in0.0 mm 0.00 in0.0 mm 0.00 in0.0 mm
04:50 AM 40.2°F4.6°C 34.5°F1.4°C 80% 3.0 mph S4.8 kmh S 9.0 mph14.5 kmh 30.22 in1023.4 mb 0.00 in0.0 mm 0.00 in0.0 mm 0.00 in0.0 mm
05:05 AM 40.1°F4.5°C 35.1°F1.7°C 82% 1.0 mph S1.6 kmh S 3.0 mph4.8 kmh 30.23 in1023.7 mb 0.00 in0.0 mm 0.00 in0.0 mm 0.00 in0.0 mm
05:10 AM 40.0°F4.4°C 35.0°F1.7°C 82% 3.0 mph S4.8 kmh S 3.0 mph4.8 kmh 30.23 in1023.7 mb 0.00 in0.0 mm 0.00 in0.0 mm 0.00 in0.0 mm
05:25 AM 40.2°F4.6°C 34.9°F1.6°C 81% 2.0 mph S3.2 kmh S 7.0 mph11.3 kmh 30.24 in1024.0 mb 0.00 in0.0 mm 0.00 in0.0 mm 0.00 in0.0 mm
05:30 AM 40.2°F4.6°C 35.2°F1.8°C 82% 4.0 mph SE6.4 kmh SE 4.0 mph6.4 kmh 30.24 in1024.0 mb 0.00 in0.0 mm 0.00 in0.0 mm 0.00 in0.0 mm
05:44 AM 39.7°F4.3°C 35.6°F2.0°C 85% 1.0 mph ESE1.6 kmh ESE 5.0 mph8.0 kmh 30.25 in1024.4 mb 0.00 in0.0 mm 0.00 in0.0 mm 0.00 in0.0 mm
05:50 AM 39.4°F4.1°C 35.6°F2.0°C 86% 3.0 mph ESE4.8 kmh ESE 5.0 mph8.0 kmh 30.25 in1024.4 mb 0.00 in0.0 mm 0.00 in0.0 mm 0.00 in0.0 mm
06:05 AM 38.4°F3.6°C 35.5°F1.9°C 89% 3.0 mph ESE4.8 kmh ESE 5.0 mph8.0 kmh 30.25 in1024.4 mb 0.00 in0.0 mm 0.00 in0.0 mm 0.00 in0.0 mm
06:09 AM 38.2°F3.4°C 35.3°F1.8°C 89% 4.0 mph ESE6.4 kmh ESE 5.0 mph8.0 kmh 30.26 in1024.7 mb 0.00 in0.0 mm 0.00 in0.0 mm 0.00 in0.0 mm
06:25 AM 37.7°F3.2°C 35.3°F1.8°C 91% 3.0 mph SE4.8 kmh SE 6.0 mph9.7 kmh 30.26 in1024.7 mb 0.00 in0.0 mm 0.00 in0.0 mm 0.00 in0.0 mm
06:30 AM 37.6°F3.1°C 35.2°F1.8°C 91% 3.0 mph SE4.8 kmh SE 7.0 mph11.3 kmh 30.26 in1024.7 mb 0.00 in0.0 mm 0.00 in0.0 mm 0.00 in0.0 mm
06:45 AM 37.2°F2.9°C 34.8°F1.6°C 91% Calm Calm 5.0 mph8.0 kmh 30.27 in1025.1 mb 0.00 in0.0 mm 0.00 in0.0 mm 0.00 in0.0 mm
06:49 AM 37.1°F2.8°C 34.7°F1.5°C 91% 1.0 mph E1.6 kmh E 5.0 mph8.0 kmh 30.27 in1025.1 mb 0.00 in0.0 mm 0.00 in0.0 mm 0.00 in0.0 mm
07:04 AM 36.8°F2.7°C 34.7°F1.5°C 92% 2.0 mph E3.2 kmh E 5.0 mph8.0 kmh 30.28 in1025.4 mb 0.00 in0.0 mm 0.00 in0.0 mm 0.00 in0.0 mm
07:09 AM 36.8°F2.7°C 34.7°F1.5°C 92% 1.0 mph ESE1.6 kmh ESE 5.0 mph8.0 kmh 30.28 in1025.4 mb 0.00 in0.0 mm 0.00 in0.0 mm 0.00 in0.0 mm
07:25 AM 36.7°F2.6°C 34.9°F1.6°C 93% 1.0 mph ESE1.6 kmh ESE 5.0 mph8.0 kmh 30.29 in1025.7 mb 0.00 in0.0 mm 0.00 in0.0 mm 0.00 in0.0 mm
07:30 AM 36.6°F2.6°C 34.5°F1.4°C 92% 3.0 mph ESE4.8 kmh ESE 5.0 mph8.0 kmh 30.29 in1025.7 mb 0.00 in0.0 mm 0.00 in0.0 mm 0.00 in0.0 mm
07:45 AM 36.6°F2.6°C 34.5°F1.4°C 92% 2.0 mph ESE3.2 kmh ESE 4.0 mph6.4 kmh 30.29 in1025.7 mb 0.00 in0.0 mm 0.00 in0.0 mm 0.00 in0.0 mm
07:50 AM 36.6°F2.6°C 34.8°F1.6°C 93% 2.0 mph ESE3.2 kmh ESE 2.0 mph3.2 kmh 30.29 in1025.7 mb 0.00 in0.0 mm 0.00 in0.0 mm 0.00 in0.0 mm
08:05 AM 36.6°F2.6°C 34.8°F1.6°C 93% 2.0 mph ESE3.2 kmh ESE 3.0 mph4.8 kmh 30.29 in1025.7 mb 0.00 in0.0 mm 0.00 in0.0 mm 0.00 in0.0 mm
08:09 AM 36.7°F2.6°C 34.6°F1.4°C 92% 4.0 mph ESE6.4 kmh ESE 4.0 mph6.4 kmh 30.30 in1026.1 mb 0.00 in0.0 mm 0.00 in0.0 mm 0.00 in0.0 mm
08:25 AM 36.9°F2.7°C 34.8°F1.6°C 92% 4.0 mph SE6.4 kmh SE 5.0 mph8.0 kmh 30.30 in1026.1 mb 0.00 in0.0 mm 0.00 in0.0 mm 0.00 in0.0 mm
08:29 AM 37.1°F2.8°C 35.3°F1.8°C 93% 5.0 mph SE8.0 kmh SE 6.0 mph9.7 kmh 30.30 in1026.1 mb 0.00 in0.0 mm 0.00 in0.0 mm 0.00 in0.0 mm
08:45 AM 37.8°F3.2°C 35.4°F1.9°C 91% 3.0 mph SE4.8 kmh SE 6.0 mph9.7 kmh 30.30 in1026.1 mb 0.00 in0.0 mm 0.00 in0.0 mm 0.00 in0.0 mm
08:50 AM 37.8°F3.2°C 35.4°F1.9°C 91% 2.0 mph SE3.2 kmh SE 3.0 mph4.8 kmh 30.30 in1026.1 mb 0.00 in0.0 mm 0.00 in0.0 mm 0.00 in0.0 mm
09:05 AM 38.2°F3.4°C 35.8°F2.1°C 91% 4.0 mph ESE6.4 kmh ESE 7.0 mph11.3 kmh 30.31 in1026.4 mb 0.00 in0.0 mm 0.00 in0.0 mm 0.00 in0.0 mm
09:10 AM 38.6°F3.7°C 35.9°F2.2°C 90% 6.0 mph SE9.7 kmh SE 9.0 mph14.5 kmh 30.31 in1026.4 mb 0.00 in0.0 mm 0.00 in0.0 mm 0.00 in0.0 mm
09:24 AM 40.3°F4.6°C 37.0°F2.8°C 88% 3.0 mph SE4.8 kmh SE 7.0 mph11.3 kmh 30.31 in1026.4 mb 0.00 in0.0 mm 0.00 in0.0 mm 0.00 in0.0 mm
09:30 AM 40.9°F4.9°C 37.3°F2.9°C 87% 4.0 mph SE6.4 kmh SE 9.0 mph14.5 kmh 30.31 in1026.4 mb 0.00 in0.0 mm 0.00 in0.0 mm 0.00 in0.0 mm
09:45 AM 42.1°F5.6°C 37.6°F3.1°C 84% Calm Calm 8.0 mph12.9 kmh 30.32 in1026.8 mb 0.00 in0.0 mm 0.00 in0.0 mm 0.00 in0.0 mm
09:50 AM 42.5°F5.8°C 37.7°F3.2°C 83% 2.0 mph SE3.2 kmh SE 8.0 mph12.9 kmh 30.32 in1026.8 mb 0.00 in0.0 mm 0.00 in0.0 mm 0.00 in0.0 mm
10:05 AM 43.7°F6.5°C 38.6°F3.7°C 82% 3.0 mph SW4.8 kmh SW 4.0 mph6.4 kmh 30.32 in1026.8 mb 0.00 in0.0 mm 0.00 in0.0 mm 0.00 in0.0 mm
10:09 AM 44.0°F6.7°C 38.9°F3.8°C 82% 3.0 mph SW4.8 kmh SW 6.0 mph9.7 kmh 30.32 in1026.8 mb 0.00 in0.0 mm 0.00 in0.0 mm 0.00 in0.0 mm
10:25 AM 45.1°F7.3°C 38.7°F3.7°C 78% 3.0 mph SSE4.8 kmh SSE 5.0 mph8.0 kmh 30.33 in1027.1 mb 0.00 in0.0 mm 0.00 in0.0 mm 0.00 in0.0 mm
10:29 AM 45.1°F7.3°C 38.3°F3.5°C 77% 3.0 mph SE4.8 kmh SE 6.0 mph9.7 kmh 30.33 in1027.1 mb 0.00 in0.0 mm 0.00 in0.0 mm 0.00 in0.0 mm
10:45 AM 45.0°F7.2°C 38.2°F3.4°C 77% 2.0 mph S3.2 kmh S 4.0 mph6.4 kmh 30.33 in1027.1 mb 0.00 in0.0 mm 0.00 in0.0 mm 0.00 in0.0 mm
10:50 AM 45.0°F7.2°C 38.2°F3.4°C 77% Calm Calm 7.0 mph11.3 kmh 30.34 in1027.4 mb 0.00 in0.0 mm 0.00 in0.0 mm 0.00 in0.0 mm
11:04 AM 44.6°F7.0°C 37.5°F3.1°C 76% 3.0 mph WNW4.8 kmh WNW 4.0 mph6.4 kmh 30.34 in1027.4 mb 0.00 in0.0 mm 0.00 in0.0 mm 0.00 in0.0 mm
11:10 AM 44.4°F6.9°C 37.3°F2.9°C 76% Calm Calm 4.0 mph6.4 kmh 30.34 in1027.4 mb 0.00 in0.0 mm 0.00 in0.0 mm 0.00 in0.0 mm
11:25 AM 42.8°F6.0°C 37.7°F3.2°C 82% 5.0 mph NNE8.0 kmh NNE 8.0 mph12.9 kmh 30.34 in1027.4 mb 0.00 in0.0 mm 0.00 in0.0 mm 0.00 in0.0 mm
11:30 AM 42.0°F5.6°C 37.2°F2.9°C 83% 7.0 mph N11.3 kmh N 8.0 mph12.9 kmh 30.34 in1027.4 mb 0.00 in0.0 mm 0.00 in0.0 mm 0.00 in0.0 mm
11:55 AM 42.3°F5.7°C 37.8°F3.2°C 84% 7.0 mph N11.3 kmh N 8.0 mph12.9 kmh 30.35 in1027.8 mb 0.00 in0.0 mm 0.00 in0.0 mm 0.00 in0.0 mm
11:59 AM 42.3°F5.7°C 37.8°F3.2°C 84% 2.0 mph N3.2 kmh N 8.0 mph12.9 kmh 30.35 in1027.8 mb 0.00 in0.0 mm 0.00 in0.0 mm 0.00 in0.0 mm
12:15 PM 43.0°F6.1°C 38.2°F3.4°C 83% 5.0 mph NE8.0 kmh NE 7.0 mph11.3 kmh 30.34 in1027.4 mb 0.00 in0.0 mm 0.00 in0.0 mm 0.00 in0.0 mm
12:20 PM 42.6°F5.9°C 37.8°F3.2°C 83% 4.0 mph NE6.4 kmh NE 8.0 mph12.9 kmh 30.34 in1027.4 mb 0.00 in0.0 mm 0.00 in0.0 mm 0.00 in0.0 mm
12:35 PM 42.9°F6.1°C 38.1°F3.4°C 83% 8.0 mph N12.9 kmh N 8.0 mph12.9 kmh 30.35 in1027.8 mb 0.00 in0.0 mm 0.00 in0.0 mm 0.00 in0.0 mm
12:40 PM 43.3°F6.3°C 38.8°F3.8°C 84% 2.0 mph NE3.2 kmh NE 8.0 mph12.9 kmh 30.35 in1027.8 mb 0.00 in0.0 mm 0.00 in0.0 mm 0.00 in0.0 mm
12:55 PM 43.4°F6.3°C 38.6°F3.7°C 83% 4.0 mph ENE6.4 kmh ENE 7.0 mph11.3 kmh 30.34 in1027.4 mb 0.00 in0.0 mm 0.00 in0.0 mm 0.00 in0.0 mm
01:00 PM 43.5°F6.4°C 38.7°F3.7°C 83% 3.0 mph ENE4.8 kmh ENE 7.0 mph11.3 kmh 30.34 in1027.4 mb 0.00 in0.0 mm 0.00 in0.0 mm 0.00 in0.0 mm
01:15 PM 44.0°F6.7°C 39.2°F4.0°C 83% 2.0 mph NE3.2 kmh NE 6.0 mph9.7 kmh 30.34 in1027.4 mb 0.00 in0.0 mm 0.00 in0.0 mm 0.00 in0.0 mm
01:20 PM 44.6°F7.0°C 39.5°F4.2°C 82% 5.0 mph ENE8.0 kmh ENE 7.0 mph11.3 kmh 30.34 in1027.4 mb 0.00 in0.0 mm 0.00 in0.0 mm 0.00 in0.0 mm
01:35 PM 46.2°F7.9°C 39.7°F4.3°C 78% 1.0 mph NE1.6 kmh NE 6.0 mph9.7 kmh 30.34 in1027.4 mb 0.00 in0.0 mm 0.00 in0.0 mm 0.00 in0.0 mm
01:40 PM 46.8°F8.2°C 40.0°F4.4°C 77% 3.0 mph NE4.8 kmh NE 6.0 mph9.7 kmh 30.34 in1027.4 mb 0.00 in0.0 mm 0.00 in0.0 mm 0.00 in0.0 mm
01:55 PM 47.0°F8.3°C 38.5°F3.6°C 72% 3.0 mph ESE4.8 kmh ESE 7.0 mph11.3 kmh 30.33 in1027.1 mb 0.00 in0.0 mm 0.00 in0.0 mm 0.00 in0.0 mm
02:00 PM 46.6°F8.1°C 38.1°F3.4°C 72% 4.0 mph SE6.4 kmh SE 7.0 mph11.3 kmh 30.33 in1027.1 mb 0.00 in0.0 mm 0.00 in0.0 mm 0.00 in0.0 mm
02:14 PM 47.8°F8.8°C 38.5°F3.6°C 70% Calm Calm 3.0 mph4.8 kmh 30.32 in1026.8 mb 0.00 in0.0 mm 0.00 in0.0 mm 0.00 in0.0 mm
02:25 PM 49.0°F9.4°C 38.2°F3.4°C 66% 7.0 mph NW11.3 kmh NW 7.0 mph11.3 kmh 30.32 in1026.8 mb 0.00 in0.0 mm 0.00 in0.0 mm 0.00 in0.0 mm
02:30 PM 48.7°F9.3°C 37.9°F3.3°C 66% 2.0 mph NNE3.2 kmh NNE 2.0 mph3.2 kmh 30.32 in1026.8 mb 0.00 in0.0 mm 0.00 in0.0 mm 0.00 in0.0 mm
02:45 PM 48.7°F9.3°C 37.5°F3.1°C 65% 1.0 mph WSW1.6 kmh WSW 5.0 mph8.0 kmh 30.31 in1026.4 mb 0.00 in0.0 mm 0.00 in0.0 mm 0.00 in0.0 mm
02:50 PM 49.2°F9.6°C 38.0°F3.3°C 65% 3.0 mph WNW4.8 kmh WNW 6.0 mph9.7 kmh 30.31 in1026.4 mb 0.00 in0.0 mm 0.00 in0.0 mm 0.00 in0.0 mm
03:05 PM 49.6°F9.8°C 34.6°F1.4°C 56% 3.0 mph WSW4.8 kmh WSW 7.0 mph11.3 kmh 30.31 in1026.4 mb 0.00 in0.0 mm 0.00 in0.0 mm 0.00 in0.0 mm
03:09 PM 49.6°F9.8°C 35.9°F2.2°C 59% 5.0 mph WSW8.0 kmh WSW 7.0 mph11.3 kmh 30.31 in1026.4 mb 0.00 in0.0 mm 0.00 in0.0 mm 0.00 in0.0 mm
03:25 PM 50.5°F10.3°C 37.2°F2.9°C 60% 6.0 mph WNW9.7 kmh WNW 6.0 mph9.7 kmh 30.30 in1026.1 mb 0.00 in0.0 mm 0.00 in0.0 mm 0.00 in0.0 mm
03:29 PM 50.5°F10.3°C 36.7°F2.6°C 59% 4.0 mph WNW6.4 kmh WNW 7.0 mph11.3 kmh 30.30 in1026.1 mb 0.00 in0.0 mm 0.00 in0.0 mm 0.00 in0.0 mm
03:45 PM 50.6°F10.3°C 37.7°F3.2°C 61% 2.0 mph NNW3.2 kmh NNW 7.0 mph11.3 kmh 30.30 in1026.1 mb 0.00 in0.0 mm 0.00 in0.0 mm 0.00 in0.0 mm
03:50 PM 50.8°F10.4°C 38.3°F3.5°C 62% 6.0 mph SW9.7 kmh SW 7.0 mph11.3 kmh 30.29 in1025.7 mb 0.00 in0.0 mm 0.00 in0.0 mm 0.00 in0.0 mm
04:05 PM 50.9°F10.5°C 38.0°F3.3°C 61% 4.0 mph SW6.4 kmh SW 5.0 mph8.0 kmh 30.29 in1025.7 mb 0.00 in0.0 mm 0.00 in0.0 mm 0.00 in0.0 mm
04:10 PM 50.9°F10.5°C 38.0°F3.3°C 61% 6.0 mph NW9.7 kmh NW 6.0 mph9.7 kmh 30.29 in1025.7 mb 0.00 in0.0 mm 0.00 in0.0 mm 0.00 in0.0 mm
04:25 PM 50.5°F10.3°C 37.6°F3.1°C 61% 4.0 mph W6.4 kmh W 5.0 mph8.0 kmh 30.28 in1025.4 mb 0.00 in0.0 mm 0.00 in0.0 mm 0.00 in0.0 mm
04:29 PM 50.4°F10.2°C 36.6°F2.6°C 59% 1.0 mph NNW1.6 kmh NNW 6.0 mph9.7 kmh 30.28 in1025.4 mb 0.00 in0.0 mm 0.00 in0.0 mm 0.00 in0.0 mm
04:45 PM 50.9°F10.5°C 37.1°F2.8°C 59% 4.0 mph SW6.4 kmh SW 6.0 mph9.7 kmh 30.28 in1025.4 mb 0.00 in0.0 mm 0.00 in0.0 mm 0.00 in0.0 mm
04:50 PM 51.1°F10.6°C 37.3°F2.9°C 59% Calm Calm 6.0 mph9.7 kmh 30.27 in1025.1 mb 0.00 in0.0 mm 0.00 in0.0 mm 0.00 in0.0 mm
05:05 PM 50.7°F10.4°C 36.5°F2.5°C 58% 4.0 mph E6.4 kmh E 7.0 mph11.3 kmh 30.27 in1025.1 mb 0.00 in0.0 mm 0.00 in0.0 mm 0.00 in0.0 mm
05:10 PM 50.8°F10.4°C 36.1°F2.3°C 57% 2.0 mph NNE3.2 kmh NNE 7.0 mph11.3 kmh 30.27 in1025.1 mb 0.00 in0.0 mm 0.00 in0.0 mm 0.00 in0.0 mm
05:24 PM 50.3°F10.2°C 33.8°F1.0°C 53% 3.0 mph NW4.8 kmh NW 4.0 mph6.4 kmh 30.27 in1025.1 mb 0.00 in0.0 mm 0.00 in0.0 mm 0.00 in0.0 mm
05:29 PM 50.4°F10.2°C 33.9°F1.1°C 53% 8.0 mph NNW12.9 kmh NNW 8.0 mph12.9 kmh 30.27 in1025.1 mb 0.00 in0.0 mm 0.00 in0.0 mm 0.00 in0.0 mm
05:45 PM 50.1°F10.1°C 33.7°F0.9°C 53% 1.0 mph N1.6 kmh N 7.0 mph11.3 kmh 30.26 in1024.7 mb 0.00 in0.0 mm 0.00 in0.0 mm 0.00 in0.0 mm
05:50 PM 50.0°F10.0°C 33.6°F0.9°C 53% 2.0 mph NE3.2 kmh NE 7.0 mph11.3 kmh 30.26 in1024.7 mb 0.00 in0.0 mm 0.00 in0.0 mm 0.00 in0.0 mm
06:04 PM 49.1°F9.5°C 31.8°F-0.1°C 51% 2.0 mph N3.2 kmh N 7.0 mph11.3 kmh 30.26 in1024.7 mb 0.00 in0.0 mm 0.00 in0.0 mm 0.00 in0.0 mm
06:10 PM 49.0°F9.4°C 33.1°F0.6°C 54% 4.0 mph NNW6.4 kmh NNW 7.0 mph11.3 kmh 30.26 in1024.7 mb 0.00 in0.0 mm 0.00 in0.0 mm 0.00 in0.0 mm
06:25 PM 49.4°F9.7°C 33.0°F0.6°C 53% 3.0 mph N4.8 kmh N 6.0 mph9.7 kmh 30.25 in1024.4 mb 0.00 in0.0 mm 0.00 in0.0 mm 0.00 in0.0 mm
06:30 PM 49.4°F9.7°C 32.5°F0.3°C 52% 3.0 mph NNW4.8 kmh NNW 6.0 mph9.7 kmh 30.25 in1024.4 mb 0.00 in0.0 mm 0.00 in0.0 mm 0.00 in0.0 mm
06:44 PM 48.8°F9.3°C 36.4°F2.4°C 62% 2.0 mph WNW3.2 kmh WNW 5.0 mph8.0 kmh 30.25 in1024.4 mb 0.00 in0.0 mm 0.00 in0.0 mm 0.00 in0.0 mm
06:50 PM 48.4°F9.1°C 36.4°F2.4°C 63% 3.0 mph W4.8 kmh W 3.0 mph4.8 kmh 30.25 in1024.4 mb 0.00 in0.0 mm 0.00 in0.0 mm 0.00 in0.0 mm
07:04 PM 47.4°F8.6°C 37.0°F2.8°C 67% 1.0 mph WSW1.6 kmh WSW 3.0 mph4.8 kmh 30.25 in1024.4 mb 0.00 in0.0 mm 0.00 in0.0 mm 0.00 in0.0 mm
07:10 PM 47.1°F8.4°C 37.1°F2.8°C 68% 2.0 mph WSW3.2 kmh WSW 2.0 mph3.2 kmh 30.25 in1024.4 mb 0.00 in0.0 mm 0.00 in0.0 mm 0.00 in0.0 mm
07:25 PM 46.1°F7.8°C 36.5°F2.5°C 69% Calm Calm 1.0 mph1.6 kmh 30.25 in1024.4 mb 0.00 in0.0 mm 0.00 in0.0 mm 0.00 in0.0 mm
07:29 PM 45.8°F7.7°C 35.9°F2.2°C 68% 1.0 mph WSW1.6 kmh WSW 1.0 mph1.6 kmh 30.24 in1024.0 mb 0.00 in0.0 mm 0.00 in0.0 mm 0.00 in0.0 mm
07:44 PM 44.8°F7.1°C 35.3°F1.8°C 69% 2.0 mph NW3.2 kmh NW 4.0 mph6.4 kmh 30.25 in1024.4 mb 0.00 in0.0 mm 0.00 in0.0 mm 0.00 in0.0 mm
07:49 PM 44.7°F7.1°C 35.2°F1.8°C 69% 2.0 mph NW3.2 kmh NW 4.0 mph6.4 kmh 30.24 in1024.0 mb 0.00 in0.0 mm 0.00 in0.0 mm 0.00 in0.0 mm
08:05 PM 44.7°F7.1°C 35.5°F1.9°C 70% 5.0 mph NW8.0 kmh NW 7.0 mph11.3 kmh 30.24 in1024.0 mb 0.00 in0.0 mm 0.00 in0.0 mm 0.00 in0.0 mm
08:10 PM 44.7°F7.1°C 34.8°F1.6°C 68% 3.0 mph NNW4.8 kmh NNW 7.0 mph11.3 kmh 30.24 in1024.0 mb 0.00 in0.0 mm 0.00 in0.0 mm 0.00 in0.0 mm
08:25 PM 44.1°F6.7°C 34.2°F1.2°C 68% 2.0 mph NW3.2 kmh NW 5.0 mph8.0 kmh 30.24 in1024.0 mb 0.00 in0.0 mm 0.00 in0.0 mm 0.00 in0.0 mm
08:30 PM 44.0°F6.7°C 34.5°F1.4°C 69% 3.0 mph NNW4.8 kmh NNW 6.0 mph9.7 kmh 30.24 in1024.0 mb 0.00 in0.0 mm 0.00 in0.0 mm 0.00 in0.0 mm
08:45 PM 43.5°F6.4°C 34.7°F1.5°C 71% 3.0 mph N4.8 kmh N 7.0 mph11.3 kmh 30.24 in1024.0 mb 0.00 in0.0 mm 0.00 in0.0 mm 0.00 in0.0 mm
08:50 PM 43.3°F6.3°C 34.5°F1.4°C 71% 3.0 mph NNE4.8 kmh NNE 7.0 mph11.3 kmh 30.24 in1024.0 mb 0.00 in0.0 mm 0.00 in0.0 mm 0.00 in0.0 mm
09:05 PM 42.5°F5.8°C 34.5°F1.4°C 73% Calm Calm 5.0 mph8.0 kmh 30.24 in1024.0 mb 0.00 in0.0 mm 0.00 in0.0 mm 0.00 in0.0 mm
09:10 PM 42.4°F5.8°C 34.4°F1.3°C 73% 1.0 mph N1.6 kmh N 5.0 mph8.0 kmh 30.24 in1024.0 mb 0.00 in0.0 mm 0.00 in0.0 mm 0.00 in0.0 mm
09:25 PM 41.5°F5.3°C 34.5°F1.4°C 76% 2.0 mph N3.2 kmh N 5.0 mph8.0 kmh 30.23 in1023.7 mb 0.00 in0.0 mm 0.00 in0.0 mm 0.00 in0.0 mm
09:30 PM 41.3°F5.2°C 34.3°F1.3°C 76% 3.0 mph N4.8 kmh N 5.0 mph8.0 kmh 30.23 in1023.7 mb 0.00 in0.0 mm 0.00 in0.0 mm 0.00 in0.0 mm
09:45 PM 40.2°F4.6°C 33.6°F0.9°C 77% Calm Calm 2.0 mph3.2 kmh 30.23 in1023.7 mb 0.00 in0.0 mm 0.00 in0.0 mm 0.00 in0.0 mm
09:50 PM 39.6°F4.2°C 33.3°F0.7°C 78% Calm Calm 3.0 mph4.8 kmh 30.23 in1023.7 mb 0.00 in0.0 mm 0.00 in0.0 mm 0.00 in0.0 mm
10:05 PM 38.5°F3.6°C 32.9°F0.5°C 80% 1.0 mph NE1.6 kmh NE 2.0 mph3.2 kmh 30.23 in1023.7 mb 0.00 in0.0 mm 0.00 in0.0 mm 0.00 in0.0 mm
10:10 PM 38.1°F3.4°C 32.8°F0.4°C 81% 2.0 mph NE3.2 kmh NE 3.0 mph4.8 kmh 30.23 in1023.7 mb 0.00 in0.0 mm 0.00 in0.0 mm 0.00 in0.0 mm
10:25 PM 38.3°F3.5°C 33.0°F0.6°C 81% 1.0 mph NE1.6 kmh NE 3.0 mph4.8 kmh 30.23 in1023.7 mb 0.00 in0.0 mm 0.00 in0.0 mm 0.00 in0.0 mm
10:29 PM 38.4°F3.6°C 33.1°F0.6°C 81% 2.0 mph NE3.2 kmh NE 3.0 mph4.8 kmh 30.23 in1023.7 mb 0.00 in0.0 mm 0.00 in0.0 mm 0.00 in0.0 mm
10:45 PM 38.6°F3.7°C 33.0°F0.6°C 80% 1.0 mph NE1.6 kmh NE 2.0 mph3.2 kmh 30.23 in1023.7 mb 0.00 in0.0 mm 0.00 in0.0 mm 0.00 in0.0 mm
10:50 PM 38.4°F3.6°C 32.8°F0.4°C 80% 2.0 mph NE3.2 kmh NE 5.0 mph8.0 kmh 30.23 in1023.7 mb 0.00 in0.0 mm 0.00 in0.0 mm 0.00 in0.0 mm
11:05 PM 37.9°F3.3°C 32.6°F0.3°C 81% 1.0 mph NE1.6 kmh NE 3.0 mph4.8 kmh 30.23 in1023.7 mb 0.00 in0.0 mm 0.00 in0.0 mm 0.00 in0.0 mm
11:09 PM 37.7°F3.2°C 32.4°F0.2°C 81% 3.0 mph NE4.8 kmh NE 3.0 mph4.8 kmh 30.23 in1023.7 mb 0.00 in0.0 mm 0.00 in0.0 mm 0.00 in0.0 mm
11:25 PM 36.9°F2.7°C 32.2°F0.1°C 83% 2.0 mph N3.2 kmh N 5.0 mph8.0 kmh 30.22 in1023.4 mb 0.00 in0.0 mm 0.00 in0.0 mm 0.00 in0.0 mm
11:30 PM 36.7°F2.6°C 32.0°F0.0°C 83% 1.0 mph N1.6 kmh N 5.0 mph8.0 kmh 30.22 in1023.4 mb 0.00 in0.0 mm 0.00 in0.0 mm 0.00 in0.0 mm
11:45 PM 35.7°F2.1°C 31.6°F-0.2°C 85% 1.0 mph N1.6 kmh N 6.0 mph9.7 kmh 30.22 in1023.4 mb 0.00 in0.0 mm 0.00 in0.0 mm 0.00 in0.0 mm
11:49 PM 35.4°F1.9°C 31.6°F-0.2°C 86% 2.0 mph N3.2 kmh N 6.0 mph9.7 kmh 30.22 in1023.4 mb 0.00 in0.0 mm 0.00 in0.0 mm 0.00 in0.0 mm